Pagrindinis puslapis
METAR-TAF:

METAR-TAF

Oro uostai :

Konakris, Gvinėja

platuma: 09-34N, ilguma: 013-37W, Aukštis: 26 m

Dabartinis oras

Ataskaita buvo paskelbta 31 minutes, ne 06:00 UTC
Vėjas 6 kt iš Šiaurės
Temperatūra 28°C
Drėgmė 79%
Slėgis 1009 hPa
Matomumas 10 km arba daugiau
nėra debesų žemiau 1500 m ir nėra kamuolinių lietaus debesų

METAR: GUCY 180600Z 36006KT CAVOK 28/24 Q1009 NOSIG

Laikas: 06:31 (06:31 UTC)

Prognozė

Ataskaita buvo paskelbta 1 valandą ir 31 minutes, ne 05:00 UTC
Prognozė galioja nuo 18 metu 06 UTC su 19 metu 12 UTC
Vėjas 6 kt iš Vakarų
Matomumas: 5000 m
migla
Laikinai
tarp CA ir VO UTC

TAF: GUCY 180500Z 1806/1912 26006KT 5000 HZ NSC TEMPO CAVOK

Orai ataskaitas ir orų prognozės (METAR, TAF).

turimą stotys yra geltonos ir raudonos taškus žemėlapyje.

Perkelti pele per norėdami pamatyti stoties vardą.

Tada spustelėkite, norėdami matyti oro stebėjimo ir prognozės.

Norėdami pakeisti žemėlapį: spustelėkite ant žalios mygtukų su juodo kryžiaus žemyn,; žalią mygtuką su brūkšneliu, jei norite nutolinti; arba žalių rodyklių gretimoms žemėlapius.


METAR-TAF: